sensor_id;sensor_type;location;lat;lon;timestamp;temperature;humidity
15298;DHT22;7750;48.796;9.026;2023-10-09T00:03:21;17.20;58.90
15298;DHT22;7750;48.796;9.026;2023-10-09T00:08:25;17.10;58.80
15298;DHT22;7750;48.796;9.026;2023-10-09T00:13:31;17.00;58.90
15298;DHT22;7750;48.796;9.026;2023-10-09T00:18:33;17.00;59.00
15298;DHT22;7750;48.796;9.026;2023-10-09T00:23:34;16.90;59.10
15298;DHT22;7750;48.796;9.026;2023-10-09T00:28:37;16.80;59.10
15298;DHT22;7750;48.796;9.026;2023-10-09T00:33:42;16.80;59.50
15298;DHT22;7750;48.796;9.026;2023-10-09T00:38:43;16.70;59.40
15298;DHT22;7750;48.796;9.026;2023-10-09T00:43:52;16.70;59.60
15298;DHT22;7750;48.796;9.026;2023-10-09T00:48:58;16.70;59.90
15298;DHT22;7750;48.796;9.026;2023-10-09T00:54:05;16.60;60.10
15298;DHT22;7750;48.796;9.026;2023-10-09T00:59:16;16.60;60.10
15298;DHT22;7750;48.796;9.026;2023-10-09T01:04:20;16.60;60.20
15298;DHT22;7750;48.796;9.026;2023-10-09T01:09:22;16.60;60.30
15298;DHT22;7750;48.796;9.026;2023-10-09T01:14:23;16.60;60.50
15298;DHT22;7750;48.796;9.026;2023-10-09T01:19:24;16.50;60.40
15298;DHT22;7750;48.796;9.026;2023-10-09T01:24:27;16.50;60.70
15298;DHT22;7750;48.796;9.026;2023-10-09T01:29:28;16.50;61.00
15298;DHT22;7750;48.796;9.026;2023-10-09T01:34:35;16.50;61.00
15298;DHT22;7750;48.796;9.026;2023-10-09T01:39:39;16.50;61.70
15298;DHT22;7750;48.796;9.026;2023-10-09T01:44:43;16.50;61.60
15298;DHT22;7750;48.796;9.026;2023-10-09T01:49:44;16.40;61.50
15298;DHT22;7750;48.796;9.026;2023-10-09T01:54:47;16.50;61.90
15298;DHT22;7750;48.796;9.026;2023-10-09T01:59:51;16.50;62.00
15298;DHT22;7750;48.796;9.026;2023-10-09T02:05:12;16.50;62.80
15298;DHT22;7750;48.796;9.026;2023-10-09T02:10:14;16.50;62.10
15298;DHT22;7750;48.796;9.026;2023-10-09T02:15:27;16.50;62.30
15298;DHT22;7750;48.796;9.026;2023-10-09T02:20:45;16.50;62.50
15298;DHT22;7750;48.796;9.026;2023-10-09T02:25:47;16.50;62.50
15298;DHT22;7750;48.796;9.026;2023-10-09T02:30:54;16.50;62.60
15298;DHT22;7750;48.796;9.026;2023-10-09T02:36:01;16.50;62.50
15298;DHT22;7750;48.796;9.026;2023-10-09T02:41:05;16.50;62.70
15298;DHT22;7750;48.796;9.026;2023-10-09T02:46:06;16.50;62.80
15298;DHT22;7750;48.796;9.026;2023-10-09T02:51:30;16.50;62.90
15298;DHT22;7750;48.796;9.026;2023-10-09T02:56:34;16.50;63.10
15298;DHT22;7750;48.796;9.026;2023-10-09T03:01:43;16.50;63.10
15298;DHT22;7750;48.796;9.026;2023-10-09T03:06:45;16.50;63.00
15298;DHT22;7750;48.796;9.026;2023-10-09T03:11:56;16.50;63.20
15298;DHT22;7750;48.796;9.026;2023-10-09T03:17:03;16.50;63.50
15298;DHT22;7750;48.796;9.026;2023-10-09T03:22:05;16.50;63.50
15298;DHT22;7750;48.796;9.026;2023-10-09T03:27:09;16.50;64.40
15298;DHT22;7750;48.796;9.026;2023-10-09T03:43:22;16.50;64.40
15298;DHT22;7750;48.796;9.026;2023-10-09T03:48:22;16.40;64.00
15298;DHT22;7750;48.796;9.026;2023-10-09T03:53:27;16.40;64.00
15298;DHT22;7750;48.796;9.026;2023-10-09T03:58:30;16.40;64.20
15298;DHT22;7750;48.796;9.026;2023-10-09T04:03:33;16.40;64.30
15298;DHT22;7750;48.796;9.026;2023-10-09T04:08:37;16.40;64.40
15298;DHT22;7750;48.796;9.026;2023-10-09T04:18:43;16.40;64.50
15298;DHT22;7750;48.796;9.026;2023-10-09T04:28:57;16.40;64.60
15298;DHT22;7750;48.796;9.026;2023-10-09T05:05:21;16.30;64.90
15298;DHT22;7750;48.796;9.026;2023-10-09T05:10:55;16.30;66.10
15298;DHT22;7750;48.796;9.026;2023-10-09T07:57:28;17.80;68.70
15298;DHT22;7750;48.796;9.026;2023-10-09T08:02:38;17.90;69.40
15298;DHT22;7750;48.796;9.026;2023-10-09T08:07:41;18.00;68.10
15298;DHT22;7750;48.796;9.026;2023-10-09T08:12:55;18.20;67.20
15298;DHT22;7750;48.796;9.026;2023-10-09T08:40:16;19.20;64.70
15298;DHT22;7750;48.796;9.026;2023-10-09T08:45:23;19.60;63.30
15298;DHT22;7750;48.796;9.026;2023-10-09T08:50:28;19.60;62.50
15298;DHT22;7750;48.796;9.026;2023-10-09T08:55:29;19.80;62.10
15298;DHT22;7750;48.796;9.026;2023-10-09T09:00:43;20.00;61.50
15298;DHT22;7750;48.796;9.026;2023-10-09T09:05:47;20.30;60.90
15298;DHT22;7750;48.796;9.026;2023-10-09T09:11:09;20.50;60.50
15298;DHT22;7750;48.796;9.026;2023-10-09T09:53:24;21.90;58.40
15298;DHT22;7750;48.796;9.026;2023-10-09T10:03:50;22.20;57.80
15298;DHT22;7750;48.796;9.026;2023-10-09T10:08:56;22.40;57.20
15298;DHT22;7750;48.796;9.026;2023-10-09T10:13:57;22.50;57.30
15298;DHT22;7750;48.796;9.026;2023-10-09T10:19:06;22.70;57.50
15298;DHT22;7750;48.796;9.026;2023-10-09T10:50:24;23.70;55.40
15298;DHT22;7750;48.796;9.026;2023-10-09T11:07:37;24.10;52.60
15298;DHT22;7750;48.796;9.026;2023-10-09T11:23:31;24.50;47.90
15298;DHT22;7750;48.796;9.026;2023-10-09T12:09:58;25.20;44.40
15298;DHT22;7750;48.796;9.026;2023-10-09T12:20:10;25.30;43.50
15298;DHT22;7750;48.796;9.026;2023-10-09T12:25:25;25.30;43.50
15298;DHT22;7750;48.796;9.026;2023-10-09T13:13:08;26.90;40.80
15298;DHT22;7750;48.796;9.026;2023-10-09T13:23:41;27.20;39.80
15298;DHT22;7750;48.796;9.026;2023-10-09T13:34:44;27.70;36.60
15298;DHT22;7750;48.796;9.026;2023-10-09T13:45:00;28.20;36.50
15298;DHT22;7750;48.796;9.026;2023-10-09T14:01:09;28.90;35.10
15298;DHT22;7750;48.796;9.026;2023-10-09T14:06:17;29.10;36.30
15298;DHT22;7750;48.796;9.026;2023-10-09T14:17:59;29.30;34.50
15298;DHT22;7750;48.796;9.026;2023-10-09T14:23:18;29.20;34.00
15298;DHT22;7750;48.796;9.026;2023-10-09T14:28:21;29.10;35.70
15298;DHT22;7750;48.796;9.026;2023-10-09T14:33:32;29.00;35.30
15298;DHT22;7750;48.796;9.026;2023-10-09T14:38:38;29.00;35.20
15298;DHT22;7750;48.796;9.026;2023-10-09T14:43:41;28.90;35.40
15298;DHT22;7750;48.796;9.026;2023-10-09T14:48:45;28.80;35.90
15298;DHT22;7750;48.796;9.026;2023-10-09T14:53:48;28.70;36.10
15298;DHT22;7750;48.796;9.026;2023-10-09T15:14:47;28.40;37.10
15298;DHT22;7750;48.796;9.026;2023-10-09T15:33:03;28.30;38.40
15298;DHT22;7750;48.796;9.026;2023-10-09T15:38:20;28.20;39.30
15298;DHT22;7750;48.796;9.026;2023-10-09T15:48:31;27.90;41.00
15298;DHT22;7750;48.796;9.026;2023-10-09T15:53:33;27.80;41.30
15298;DHT22;7750;48.796;9.026;2023-10-09T15:58:38;27.70;41.70
15298;DHT22;7750;48.796;9.026;2023-10-09T19:29:52;23.30;45.10
15298;DHT22;7750;48.796;9.026;2023-10-09T19:35:20;23.30;45.10
